createdAt,value
2022-09-07T00:00:49.469Z,100.00
2022-09-07T00:03:17.471Z,100.00
2022-09-07T00:05:46.855Z,100.00
2022-09-07T00:08:15.730Z,100.00
2022-09-07T00:10:57.187Z,100.00
2022-09-07T00:13:25.739Z,100.00
2022-09-07T00:15:53.250Z,100.00
2022-09-07T00:18:21.039Z,100.00
2022-09-07T00:21:01.171Z,100.00
2022-09-07T00:23:30.611Z,100.00
2022-09-07T00:26:10.378Z,100.00
2022-09-07T00:28:38.481Z,100.00
2022-09-07T00:31:11.058Z,100.00
2022-09-07T00:33:38.583Z,100.00
2022-09-07T00:36:06.184Z,100.00
2022-09-07T00:38:33.522Z,100.00
2022-09-07T00:41:00.820Z,100.00
2022-09-07T00:43:38.482Z,100.00
2022-09-07T00:46:12.124Z,100.00
2022-09-07T00:48:57.453Z,100.00
2022-09-07T00:51:44.104Z,100.00
2022-09-07T00:54:17.432Z,100.00
2022-09-07T00:56:46.895Z,100.00
2022-09-07T00:59:17.594Z,100.00
2022-09-07T01:01:45.580Z,100.00
2022-09-07T01:04:16.253Z,100.00
2022-09-07T01:06:46.066Z,100.00
2022-09-07T01:09:19.048Z,100.00
2022-09-07T01:11:51.237Z,100.00
2022-09-07T01:14:23.008Z,100.00
2022-09-07T01:17:19.896Z,100.00
2022-09-07T01:20:10.822Z,100.00
2022-09-07T01:22:56.885Z,100.00
2022-09-07T01:25:45.301Z,100.00
2022-09-07T01:28:26.671Z,100.00
2022-09-07T01:30:58.725Z,100.00
2022-09-07T01:33:32.746Z,100.00
2022-09-07T01:36:32.644Z,100.00
2022-09-07T01:39:03.336Z,100.00
2022-09-07T01:41:47.521Z,100.00
2022-09-07T01:44:23.678Z,100.00
2022-09-07T01:47:06.460Z,100.00
2022-09-07T01:49:42.627Z,100.00
2022-09-07T01:52:35.842Z,100.00
2022-09-07T01:55:50.658Z,100.00
2022-09-07T01:58:23.932Z,100.00
2022-09-07T02:00:58.178Z,100.00
2022-09-07T02:03:55.355Z,100.00
2022-09-07T02:06:48.107Z,100.00
2022-09-07T02:09:37.539Z,100.00
2022-09-07T02:12:15.117Z,100.00
2022-09-07T02:14:52.366Z,100.00
2022-09-07T02:17:25.157Z,100.00
2022-09-07T02:20:00.041Z,100.00
2022-09-07T02:22:32.062Z,100.00
2022-09-07T02:25:03.453Z,100.00
2022-09-07T02:27:40.986Z,100.00
2022-09-07T02:30:08.907Z,100.00
2022-09-07T02:32:36.088Z,100.00
2022-09-07T02:35:04.227Z,100.00
2022-09-07T02:37:32.670Z,100.00
2022-09-07T02:40:00.496Z,100.00
2022-09-07T02:42:34.087Z,100.00
2022-09-07T02:45:06.456Z,100.00
2022-09-07T02:47:55.244Z,100.00
2022-09-07T02:50:37.357Z,100.00
2022-09-07T02:53:31.740Z,100.00
2022-09-07T02:56:17.181Z,100.00
2022-09-07T02:58:59.785Z,100.00
2022-09-07T03:01:51.403Z,100.00
2022-09-07T03:04:40.128Z,100.00
2022-09-07T03:07:13.238Z,100.00
2022-09-07T03:09:45.735Z,100.00
2022-09-07T03:12:13.284Z,100.00
2022-09-07T03:14:42.311Z,100.00
2022-09-07T03:17:10.719Z,100.00
2022-09-07T03:19:38.044Z,100.00
2022-09-07T03:22:06.113Z,100.00
2022-09-07T03:24:33.603Z,100.00
2022-09-07T03:27:01.859Z,100.00
2022-09-07T03:29:29.083Z,100.00
2022-09-07T03:31:56.371Z,100.00
2022-09-07T03:34:23.569Z,100.00
2022-09-07T03:36:50.897Z,100.00
2022-09-07T03:39:21.030Z,100.00
2022-09-07T03:41:48.334Z,100.00
2022-09-07T03:44:15.551Z,100.00
2022-09-07T03:46:44.380Z,100.00
2022-09-07T03:49:11.891Z,100.00
2022-09-07T03:51:39.537Z,100.00
2022-09-07T03:54:07.503Z,100.00
2022-09-07T03:56:34.873Z,100.00
2022-09-07T03:59:02.106Z,100.00
2022-09-07T04:01:29.957Z,100.00
2022-09-07T04:04:02.129Z,100.00
2022-09-07T04:06:31.126Z,100.00
2022-09-07T04:09:04.692Z,100.00
2022-09-07T04:11:32.254Z,100.00
2022-09-07T04:13:59.615Z,100.00
2022-09-07T04:16:27.972Z,100.00
2022-09-07T04:18:55.358Z,100.00
2022-09-07T04:21:23.889Z,100.00
2022-09-07T04:23:51.528Z,100.00
2022-09-07T04:26:24.737Z,100.00
2022-09-07T04:28:52.437Z,100.00
2022-09-07T04:31:20.394Z,100.00
2022-09-07T04:33:49.904Z,100.00
2022-09-07T04:36:18.933Z,100.00
2022-09-07T04:38:47.125Z,100.00
2022-09-07T04:41:17.160Z,100.00
2022-09-07T04:43:46.111Z,100.00
2022-09-07T04:46:20.893Z,100.00
2022-09-07T04:48:53.491Z,100.00
2022-09-07T04:51:22.623Z,100.00
2022-09-07T04:53:51.553Z,100.00
2022-09-07T04:56:19.700Z,100.00
2022-09-07T04:58:47.978Z,100.00
2022-09-07T05:01:17.900Z,100.00
2022-09-07T05:03:45.998Z,100.00
2022-09-07T05:06:14.395Z,100.00
2022-09-07T05:08:45.167Z,100.00
2022-09-07T05:11:14.389Z,100.00
2022-09-07T05:13:41.706Z,100.00
2022-09-07T05:16:15.037Z,100.00
2022-09-07T05:18:42.796Z,100.00
2022-09-07T05:21:14.070Z,100.00
2022-09-07T05:23:41.658Z,99.92
2022-09-07T05:26:10.329Z,100.00
2022-09-07T05:28:38.701Z,99.87
2022-09-07T05:31:20.034Z,99.87
2022-09-07T05:36:39.827Z,98.47
2022-09-07T05:39:08.725Z,97.32
2022-09-07T05:41:35.914Z,96.50
2022-09-07T05:46:52.344Z,94.38
2022-09-07T05:49:19.591Z,93.51
2022-09-07T05:51:47.284Z,92.63
2022-09-07T05:54:14.673Z,92.13
2022-09-07T05:56:42.988Z,92.46
2022-09-07T05:59:10.550Z,90.66
2022-09-07T06:01:37.921Z,90.69
2022-09-07T06:04:05.028Z,90.57
2022-09-07T06:06:32.666Z,90.83
2022-09-07T06:09:00.247Z,89.42
2022-09-07T06:11:27.570Z,88.38
2022-09-07T06:13:54.795Z,88.24
2022-09-07T06:16:22.907Z,87.54
2022-09-07T06:18:50.658Z,86.30
2022-09-07T06:21:23.289Z,85.48
2022-09-07T06:23:51.922Z,83.39
2022-09-07T06:26:19.949Z,82.37
2022-09-07T06:28:52.097Z,82.02
2022-09-07T06:31:23.632Z,80.18
2022-09-07T06:33:52.302Z,80.06
2022-09-07T06:36:21.696Z,79.51
2022-09-07T06:38:50.041Z,79.28
2022-09-07T06:44:08.919Z,79.51
2022-09-07T06:49:25.055Z,78.44
2022-09-07T06:51:52.503Z,78.13
2022-09-07T06:57:09.436Z,76.74
2022-09-07T06:59:38.047Z,75.34
2022-09-07T07:02:07.187Z,75.55
2022-09-07T07:04:40.282Z,76.21
2022-09-07T07:07:13.012Z,74.91
2022-09-07T07:09:40.530Z,74.48
2022-09-07T07:12:11.133Z,74.38
2022-09-07T07:14:44.082Z,72.39
2022-09-07T07:17:12.765Z,72.04
2022-09-07T07:19:39.941Z,71.64
2022-09-07T07:22:23.753Z,70.70
2022-09-07T07:24:54.534Z,69.00
2022-09-07T07:27:22.141Z,68.51
2022-09-07T07:29:50.196Z,69.43
2022-09-07T07:32:17.538Z,67.55
2022-09-07T07:34:44.875Z,68.17
2022-09-07T07:37:12.216Z,66.78
2022-09-07T07:42:26.971Z,64.21
2022-09-07T07:47:42.593Z,65.14
2022-09-07T07:55:45.647Z,63.53
2022-09-07T07:58:13.038Z,63.39
2022-09-07T08:00:53.747Z,62.50
2022-09-07T08:03:23.845Z,62.25
2022-09-07T08:05:51.595Z,61.35
2022-09-07T08:08:19.161Z,61.57
2022-09-07T08:10:48.090Z,61.03
2022-09-07T08:13:16.636Z,60.59
2022-09-07T08:15:46.894Z,56.94
2022-09-07T08:18:16.852Z,55.50
2022-09-07T08:20:44.795Z,54.86
2022-09-07T08:23:12.226Z,53.84
2022-09-07T08:25:48.816Z,51.90
2022-09-07T08:28:16.088Z,50.78
2022-09-07T08:30:43.794Z,50.76
2022-09-07T08:33:11.380Z,49.88
2022-09-07T08:35:38.443Z,50.07
2022-09-07T08:38:05.735Z,50.49
2022-09-07T08:40:37.247Z,51.99
2022-09-07T08:43:28.793Z,50.23
2022-09-07T08:46:04.284Z,51.31
2022-09-07T08:48:34.470Z,49.97
2022-09-07T08:51:21.195Z,50.21
2022-09-07T08:53:53.374Z,49.60
2022-09-07T08:56:33.648Z,50.64
2022-09-07T08:59:15.691Z,48.79
2022-09-07T09:02:26.274Z,48.39
2022-09-07T09:04:32.229Z,47.46
2022-09-07T09:07:17.929Z,47.00
2022-09-07T09:10:04.513Z,47.35
2022-09-07T09:13:13.879Z,47.72
2022-09-07T09:16:16.130Z,47.28
2022-09-07T09:18:52.934Z,48.63
2022-09-07T09:21:27.228Z,45.60
2022-09-07T09:24:02.211Z,45.65
2022-09-07T09:26:34.217Z,46.31
2022-09-07T09:29:20.403Z,47.60
2022-09-07T09:31:47.872Z,46.78
2022-09-07T09:34:17.855Z,46.56
2022-09-07T09:36:49.467Z,45.59
2022-09-07T09:39:32.061Z,45.56
2022-09-07T09:42:14.815Z,44.86
2022-09-07T09:44:43.919Z,43.90
2022-09-07T09:47:30.758Z,43.66
2022-09-07T09:53:28.123Z,43.67
2022-09-07T09:55:56.975Z,43.49
2022-09-07T10:01:35.451Z,44.35
2022-09-07T10:04:38.086Z,44.21
2022-09-07T10:07:28.381Z,44.18
2022-09-07T10:09:57.076Z,45.00
2022-09-07T10:12:29.770Z,44.40
2022-09-07T10:14:57.547Z,44.41
2022-09-07T10:17:34.621Z,44.36
2022-09-07T10:20:17.751Z,45.69
2022-09-07T10:22:52.009Z,45.21
2022-09-07T10:25:39.834Z,44.32
2022-09-07T10:28:11.049Z,44.14
2022-09-07T10:30:56.136Z,45.81
2022-09-07T10:33:28.187Z,44.86
2022-09-07T10:36:21.501Z,46.11
2022-09-07T10:39:00.196Z,45.18
2022-09-07T10:41:42.346Z,44.71
2022-09-07T10:44:23.761Z,43.62
2022-09-07T10:47:03.028Z,43.80
2022-09-07T10:49:38.231Z,43.93
2022-09-07T10:52:34.271Z,43.65
2022-09-07T10:55:28.248Z,43.97
2022-09-07T10:58:02.771Z,43.99
2022-09-07T11:00:37.525Z,43.57
2022-09-07T11:03:26.437Z,43.49
2022-09-07T11:06:33.219Z,42.97
2022-09-07T11:09:16.454Z,41.85
2022-09-07T11:12:04.404Z,42.29
2022-09-07T11:14:41.521Z,42.28
2022-09-07T11:17:24.894Z,42.68
2022-09-07T11:20:08.681Z,42.88
2022-09-07T11:22:45.733Z,42.78
2022-09-07T11:25:34.081Z,42.63
2022-09-07T11:28:13.078Z,42.86
2022-09-07T11:30:50.849Z,43.97
2022-09-07T11:34:23.716Z,42.49
2022-09-07T11:36:40.622Z,41.90
2022-09-07T11:39:14.981Z,42.00
2022-09-07T11:41:49.464Z,41.59
2022-09-07T11:44:40.029Z,41.83
2022-09-07T11:47:24.743Z,41.84
2022-09-07T11:49:59.179Z,41.06
2022-09-07T11:52:29.357Z,40.72
2022-09-07T11:55:02.349Z,41.36
2022-09-07T11:57:46.028Z,41.43
2022-09-07T12:00:21.723Z,41.24
2022-09-07T12:03:00.207Z,41.67
2022-09-07T12:05:46.029Z,39.97
2022-09-07T12:08:21.875Z,39.36
2022-09-07T12:10:58.124Z,39.66
2022-09-07T12:14:03.093Z,40.32
2022-09-07T12:17:18.891Z,40.42
2022-09-07T12:19:46.635Z,40.37
2022-09-07T12:22:22.123Z,40.31
2022-09-07T12:24:54.119Z,40.81
2022-09-07T12:27:21.322Z,39.10
2022-09-07T12:29:50.055Z,39.06
2022-09-07T12:32:57.042Z,39.35
2022-09-07T12:35:28.658Z,40.94
2022-09-07T12:37:57.658Z,41.21
2022-09-07T12:40:28.015Z,40.72
2022-09-07T12:43:15.796Z,39.46
2022-09-07T12:45:43.028Z,39.89
2022-09-07T12:48:33.200Z,40.58
2022-09-07T12:51:12.549Z,39.54
2022-09-07T12:53:57.836Z,40.09
2022-09-07T13:00:02.586Z,38.96
2022-09-07T13:02:30.430Z,40.92
2022-09-07T13:05:03.522Z,39.83
2022-09-07T13:07:36.777Z,38.81
2022-09-07T13:10:17.023Z,39.33
2022-09-07T13:12:56.624Z,39.04
2022-09-07T13:15:52.279Z,38.65
2022-09-07T13:18:29.352Z,37.41
2022-09-07T13:21:09.145Z,38.09
2022-09-07T13:23:41.078Z,38.61
2022-09-07T13:26:12.133Z,38.68
2022-09-07T13:28:56.066Z,37.86
2022-09-07T13:31:51.696Z,38.62
2022-09-07T13:34:35.311Z,38.32
2022-09-07T13:37:06.410Z,37.80
2022-09-07T13:39:42.077Z,37.53
2022-09-07T13:42:16.594Z,38.30
2022-09-07T13:44:55.744Z,37.46
2022-09-07T13:47:40.205Z,37.37
2022-09-07T13:50:34.854Z,37.59
2022-09-07T13:53:32.730Z,37.14
2022-09-07T13:56:38.263Z,37.41
2022-09-07T13:59:23.548Z,37.89
2022-09-07T14:01:52.499Z,38.00
2022-09-07T14:04:27.305Z,36.75
2022-09-07T14:07:15.064Z,36.42
2022-09-07T14:09:42.994Z,36.96
2022-09-07T14:12:21.370Z,37.21
2022-09-07T14:15:18.603Z,37.72
2022-09-07T14:17:47.371Z,37.40
2022-09-07T14:20:17.019Z,36.94
2022-09-07T14:22:49.403Z,37.49
2022-09-07T14:25:22.884Z,37.14
2022-09-07T14:27:50.403Z,37.25
2022-09-07T14:30:32.090Z,37.18
2022-09-07T14:33:03.089Z,36.66
2022-09-07T14:35:37.111Z,36.40
2022-09-07T14:39:04.095Z,36.90
2022-09-07T14:41:11.795Z,36.94
2022-09-07T14:43:51.123Z,36.73
2022-09-07T14:46:22.327Z,37.41
2022-09-07T14:48:57.058Z,36.76
2022-09-07T14:51:36.632Z,36.64
2022-09-07T14:54:06.992Z,37.27
2022-09-07T14:56:36.741Z,38.72
2022-09-07T14:59:26.746Z,37.91
2022-09-07T15:02:20.117Z,37.91
2022-09-07T15:04:49.060Z,37.35
2022-09-07T15:07:50.150Z,37.43
2022-09-07T15:10:23.882Z,37.74
2022-09-07T15:12:53.833Z,38.22
2022-09-07T15:15:33.682Z,37.71
2022-09-07T15:18:09.037Z,36.91
2022-09-07T15:20:40.506Z,38.03
2022-09-07T15:23:13.633Z,38.08
2022-09-07T15:25:45.435Z,37.68
2022-09-07T15:34:10.238Z,37.29
2022-09-07T15:36:40.757Z,37.54
2022-09-07T15:39:21.336Z,38.43
2022-09-07T15:41:49.747Z,39.53
2022-09-07T15:44:21.534Z,39.76
2022-09-07T15:49:47.443Z,41.13
2022-09-07T15:52:17.224Z,41.41
2022-09-07T15:54:44.342Z,41.54
2022-09-07T15:59:59.615Z,42.72
2022-09-07T16:05:16.006Z,43.31
2022-09-07T16:10:31.731Z,43.61
2022-09-07T16:13:02.247Z,43.93
2022-09-07T16:15:31.448Z,43.98
2022-09-07T16:17:58.809Z,44.66
2022-09-07T16:20:26.876Z,45.08
2022-09-07T16:25:43.395Z,45.76
2022-09-07T16:28:11.065Z,45.95
2022-09-07T16:30:41.420Z,46.56
2022-09-07T16:33:09.347Z,46.80
2022-09-07T16:35:36.607Z,46.96
2022-09-07T16:40:53.974Z,47.99
2022-09-07T16:43:27.166Z,48.08
2022-09-07T16:46:15.233Z,49.18
2022-09-07T16:48:44.300Z,51.04
2022-09-07T16:51:13.513Z,51.88
2022-09-07T16:53:40.647Z,52.69
2022-09-07T16:56:16.902Z,53.43
2022-09-07T16:58:54.835Z,54.41
2022-09-07T17:01:26.332Z,55.85
2022-09-07T17:03:54.238Z,56.60
2022-09-07T17:06:23.825Z,57.38
2022-09-07T17:08:53.487Z,57.61
2022-09-07T17:11:41.091Z,58.65
2022-09-07T17:14:08.378Z,59.24
2022-09-07T17:16:38.913Z,60.07
2022-09-07T17:21:57.704Z,60.82
2022-09-07T17:24:25.290Z,60.69
2022-09-07T17:26:53.911Z,59.51
2022-09-07T17:29:21.023Z,58.73
2022-09-07T17:34:36.209Z,58.26
2022-09-07T17:37:07.635Z,58.45
2022-09-07T17:39:35.454Z,57.99
2022-09-07T17:42:02.778Z,58.65
2022-09-07T17:44:35.804Z,58.39
2022-09-07T17:47:05.468Z,58.65
2022-09-07T17:49:32.633Z,59.24
2022-09-07T17:52:01.088Z,58.48
2022-09-07T17:54:28.323Z,58.22
2022-09-07T17:56:55.480Z,57.69
2022-09-07T18:02:13.639Z,58.63
2022-09-07T18:04:41.047Z,58.87
2022-09-07T18:07:08.654Z,58.70
2022-09-07T18:09:36.043Z,57.56
2022-09-07T18:12:03.762Z,59.13
2022-09-07T18:14:32.228Z,59.31
2022-09-07T18:17:00.482Z,58.37
2022-09-07T18:19:28.463Z,57.93
2022-09-07T18:21:56.283Z,58.41
2022-09-07T18:24:24.556Z,58.96
2022-09-07T18:26:54.143Z,59.14
2022-09-07T18:29:28.640Z,58.76
2022-09-07T18:31:57.486Z,59.07
2022-09-07T18:34:25.094Z,59.03
2022-09-07T18:36:52.214Z,59.24
2022-09-07T18:39:19.532Z,58.97
2022-09-07T18:41:46.672Z,59.10
2022-09-07T18:47:01.326Z,60.68
2022-09-07T18:49:28.787Z,61.16
2022-09-07T18:54:43.096Z,62.36
2022-09-07T18:57:10.273Z,62.32
2022-09-07T18:59:37.793Z,62.74
2022-09-07T19:02:08.037Z,61.77
2022-09-07T19:07:27.368Z,62.11
2022-09-07T19:09:56.904Z,62.91
2022-09-07T19:12:24.674Z,62.88
2022-09-07T19:14:51.834Z,62.69
2022-09-07T19:17:19.609Z,62.24
2022-09-07T19:19:48.445Z,62.12
2022-09-07T19:22:15.584Z,61.85
2022-09-07T19:24:43.830Z,62.00
2022-09-07T19:27:10.908Z,62.07
2022-09-07T19:29:37.938Z,63.71
2022-09-07T19:32:05.663Z,64.85
2022-09-07T19:34:38.171Z,65.42
2022-09-07T19:37:07.273Z,66.66
2022-09-07T19:39:34.427Z,65.92
2022-09-07T19:42:04.338Z,67.32
2022-09-07T19:44:31.915Z,67.84
2022-09-07T19:47:00.173Z,68.26
2022-09-07T19:49:28.063Z,68.57
2022-09-07T19:51:55.624Z,68.11
2022-09-07T19:54:22.948Z,68.70
2022-09-07T19:56:50.066Z,69.21
2022-09-07T19:59:19.202Z,69.88
2022-09-07T20:01:48.351Z,69.38
2022-09-07T20:04:20.713Z,70.00
2022-09-07T20:06:50.360Z,71.03
2022-09-07T20:09:18.895Z,70.79
2022-09-07T20:11:47.934Z,70.87
2022-09-07T20:14:16.264Z,70.73
2022-09-07T20:16:43.656Z,70.49
2022-09-07T20:19:14.632Z,70.59
2022-09-07T20:21:42.661Z,71.09
2022-09-07T20:24:12.437Z,71.74
2022-09-07T20:26:39.788Z,72.71
2022-09-07T20:31:55.114Z,73.64
2022-09-07T20:34:22.327Z,74.04
2022-09-07T20:36:50.454Z,74.65
2022-09-07T20:39:18.440Z,75.73
2022-09-07T20:41:45.711Z,76.37
2022-09-07T20:44:13.221Z,76.77
2022-09-07T20:46:40.704Z,77.26
2022-09-07T20:49:07.967Z,78.19
2022-09-07T20:51:35.362Z,78.29
2022-09-07T20:54:02.424Z,78.97
2022-09-07T20:56:29.676Z,78.87
2022-09-07T20:59:02.186Z,78.88
2022-09-07T21:01:31.603Z,79.09
2022-09-07T21:04:00.710Z,80.03
2022-09-07T21:06:29.303Z,80.10
2022-09-07T21:08:59.568Z,80.50
2022-09-07T21:11:32.424Z,80.59
2022-09-07T21:14:08.608Z,81.18
2022-09-07T21:16:36.527Z,81.69
2022-09-07T21:19:06.990Z,81.89
2022-09-07T21:21:38.943Z,82.02
2022-09-07T21:24:16.994Z,82.08
2022-09-07T21:26:44.438Z,82.32
2022-09-07T21:29:20.324Z,82.61
2022-09-07T21:31:48.421Z,83.20
2022-09-07T21:34:16.540Z,83.87
2022-09-07T21:36:44.071Z,84.20
2022-09-07T21:39:14.362Z,84.51
2022-09-07T21:41:42.604Z,84.57
2022-09-07T21:44:15.170Z,84.64
2022-09-07T21:46:43.466Z,85.03
2022-09-07T21:49:11.433Z,85.45
2022-09-07T21:51:39.024Z,86.25
2022-09-07T21:54:06.127Z,86.69
2022-09-07T21:56:33.278Z,87.11
2022-09-07T21:59:02.117Z,87.05
2022-09-07T22:01:31.098Z,87.41
2022-09-07T22:04:03.714Z,87.38
2022-09-07T22:06:32.585Z,87.89
2022-09-07T22:09:00.574Z,88.19
2022-09-07T22:11:28.647Z,88.98
2022-09-07T22:13:57.961Z,89.79
2022-09-07T22:16:25.295Z,90.10
2022-09-07T22:18:52.555Z,90.23
2022-09-07T22:21:22.813Z,90.74
2022-09-07T22:23:52.608Z,91.17
2022-09-07T22:26:23.419Z,91.71
2022-09-07T22:28:50.972Z,92.84
2022-09-07T22:31:30.792Z,93.44
2022-09-07T22:33:59.795Z,93.45
2022-09-07T22:36:28.794Z,93.12
2022-09-07T22:38:57.899Z,93.21
2022-09-07T22:41:28.170Z,93.48
2022-09-07T22:43:56.209Z,94.09
2022-09-07T22:46:25.788Z,94.04
2022-09-07T22:48:58.286Z,94.44
2022-09-07T22:51:26.271Z,94.56
2022-09-07T22:53:54.317Z,95.15
2022-09-07T22:56:27.599Z,94.93
2022-09-07T22:59:00.696Z,94.51
2022-09-07T23:01:29.750Z,94.79
2022-09-07T23:03:57.533Z,94.76
2022-09-07T23:06:29.357Z,94.87
2022-09-07T23:08:58.280Z,94.97
2022-09-07T23:11:26.201Z,95.16
2022-09-07T23:13:55.714Z,95.16
2022-09-07T23:16:23.788Z,95.60
2022-09-07T23:18:50.983Z,95.82
2022-09-07T23:21:18.643Z,96.06
2022-09-07T23:23:53.458Z,96.40
2022-09-07T23:26:22.404Z,96.74
2022-09-07T23:29:00.564Z,97.16
2022-09-07T23:31:40.845Z,96.99
2022-09-07T23:34:08.444Z,97.31
2022-09-07T23:36:36.884Z,97.61
2022-09-07T23:39:04.468Z,97.97
2022-09-07T23:41:31.838Z,97.95
2022-09-07T23:43:58.854Z,98.57
2022-09-07T23:46:26.512Z,98.29
2022-09-07T23:48:54.054Z,98.10
2022-09-07T23:51:24.160Z,98.22
2022-09-07T23:53:52.455Z,98.60
2022-09-07T23:56:20.430Z,98.99
2022-09-07T23:58:50.647Z,98.86
